sensor_id;sensor_type;location;lat;lon;timestamp;temperature;humidity
30150;DHT22;16962;48.646;9.026;2023-05-15T00:00:47;7.40;99.90
30150;DHT22;16962;48.646;9.026;2023-05-15T00:03:37;7.40;99.90
30150;DHT22;16962;48.646;9.026;2023-05-15T00:06:24;7.50;99.90
30150;DHT22;16962;48.646;9.026;2023-05-15T00:09:12;7.60;99.90
30150;DHT22;16962;48.646;9.026;2023-05-15T00:12:01;7.80;99.90
30150;DHT22;16962;48.646;9.026;2023-05-15T00:14:51;7.80;99.90
30150;DHT22;16962;48.646;9.026;2023-05-15T00:17:38;7.90;99.90
30150;DHT22;16962;48.646;9.026;2023-05-15T00:20:28;8.00;99.90
30150;DHT22;16962;48.646;9.026;2023-05-15T00:23:15;8.10;99.90
30150;DHT22;16962;48.646;9.026;2023-05-15T00:26:03;8.10;99.90
30150;DHT22;16962;48.646;9.026;2023-05-15T00:28:51;8.00;99.90
30150;DHT22;16962;48.646;9.026;2023-05-15T00:31:38;8.00;99.90
30150;DHT22;16962;48.646;9.026;2023-05-15T00:34:28;7.90;99.90
30150;DHT22;16962;48.646;9.026;2023-05-15T00:37:16;7.80;99.90
30150;DHT22;16962;48.646;9.026;2023-05-15T00:40:03;7.70;99.90
30150;DHT22;16962;48.646;9.026;2023-05-15T00:42:52;7.60;99.90
30150;DHT22;16962;48.646;9.026;2023-05-15T00:45:41;7.60;99.90
30150;DHT22;16962;48.646;9.026;2023-05-15T00:48:28;7.60;99.90
30150;DHT22;16962;48.646;9.026;2023-05-15T00:51:18;7.60;99.90
30150;DHT22;16962;48.646;9.026;2023-05-15T00:54:09;7.60;99.90
30150;DHT22;16962;48.646;9.026;2023-05-15T00:56:58;7.60;99.90
30150;DHT22;16962;48.646;9.026;2023-05-15T00:59:47;7.60;99.90
30150;DHT22;16962;48.646;9.026;2023-05-15T01:02:37;7.50;99.90
30150;DHT22;16962;48.646;9.026;2023-05-15T01:05:26;7.50;99.90
30150;DHT22;16962;48.646;9.026;2023-05-15T01:08:26;7.50;99.90
30150;DHT22;16962;48.646;9.026;2023-05-15T01:11:20;7.50;99.90
30150;DHT22;16962;48.646;9.026;2023-05-15T01:14:12;7.60;99.90
30150;DHT22;16962;48.646;9.026;2023-05-15T01:16:59;7.70;99.90
30150;DHT22;16962;48.646;9.026;2023-05-15T01:19:52;7.70;99.90
30150;DHT22;16962;48.646;9.026;2023-05-15T01:22:50;7.90;99.90
30150;DHT22;16962;48.646;9.026;2023-05-15T01:28:56;8.20;99.90
30150;DHT22;16962;48.646;9.026;2023-05-15T01:31:52;8.30;99.90
30150;DHT22;16962;48.646;9.026;2023-05-15T01:34:51;8.30;99.90
30150;DHT22;16962;48.646;9.026;2023-05-15T01:37:43;8.30;99.90
30150;DHT22;16962;48.646;9.026;2023-05-15T01:40:35;8.30;99.90
30150;DHT22;16962;48.646;9.026;2023-05-15T01:43:27;8.40;99.90
30150;DHT22;16962;48.646;9.026;2023-05-15T01:46:19;8.40;99.90
30150;DHT22;16962;48.646;9.026;2023-05-15T01:49:10;8.40;99.90
30150;DHT22;16962;48.646;9.026;2023-05-15T01:52:09;8.50;99.90
30150;DHT22;16962;48.646;9.026;2023-05-15T01:55:05;8.50;99.90
30150;DHT22;16962;48.646;9.026;2023-05-15T01:57:55;8.60;99.90
30150;DHT22;16962;48.646;9.026;2023-05-15T02:00:44;8.60;99.90
30150;DHT22;16962;48.646;9.026;2023-05-15T02:03:34;8.70;99.90
30150;DHT22;16962;48.646;9.026;2023-05-15T02:06:23;8.70;99.90
30150;DHT22;16962;48.646;9.026;2023-05-15T02:09:13;8.80;99.90
30150;DHT22;16962;48.646;9.026;2023-05-15T02:12:01;8.80;99.90
30150;DHT22;16962;48.646;9.026;2023-05-15T02:14:49;8.80;99.90
30150;DHT22;16962;48.646;9.026;2023-05-15T02:17:38;8.80;99.90
30150;DHT22;16962;48.646;9.026;2023-05-15T02:20:26;8.80;99.90
30150;DHT22;16962;48.646;9.026;2023-05-15T02:23:16;8.80;99.90
30150;DHT22;16962;48.646;9.026;2023-05-15T02:32:28;8.80;99.90
30150;DHT22;16962;48.646;9.026;2023-05-15T02:35:40;8.80;99.90
30150;DHT22;16962;48.646;9.026;2023-05-15T02:38:38;8.80;99.90
30150;DHT22;16962;48.646;9.026;2023-05-15T02:41:28;8.80;99.90
30150;DHT22;16962;48.646;9.026;2023-05-15T02:44:18;8.80;99.90
30150;DHT22;16962;48.646;9.026;2023-05-15T02:47:08;8.80;99.90
30150;DHT22;16962;48.646;9.026;2023-05-15T02:49:56;8.80;99.90
30150;DHT22;16962;48.646;9.026;2023-05-15T02:52:44;8.80;99.90
30150;DHT22;16962;48.646;9.026;2023-05-15T02:55:33;8.80;99.90
30150;DHT22;16962;48.646;9.026;2023-05-15T02:58:25;8.80;99.90
30150;DHT22;16962;48.646;9.026;2023-05-15T03:01:12;8.80;99.90
30150;DHT22;16962;48.646;9.026;2023-05-15T03:04:00;8.80;99.90
30150;DHT22;16962;48.646;9.026;2023-05-15T03:06:48;8.70;99.90
30150;DHT22;16962;48.646;9.026;2023-05-15T03:09:35;8.80;99.90
30150;DHT22;16962;48.646;9.026;2023-05-15T03:12:22;8.80;99.90
30150;DHT22;16962;48.646;9.026;2023-05-15T03:15:09;8.80;99.90
30150;DHT22;16962;48.646;9.026;2023-05-15T03:17:57;8.80;99.90
30150;DHT22;16962;48.646;9.026;2023-05-15T03:20:47;8.90;99.90
30150;DHT22;16962;48.646;9.026;2023-05-15T03:23:35;8.90;99.90
30150;DHT22;16962;48.646;9.026;2023-05-15T03:26:24;8.90;99.90
30150;DHT22;16962;48.646;9.026;2023-05-15T03:29:12;8.90;99.90
30150;DHT22;16962;48.646;9.026;2023-05-15T03:32:02;8.90;99.90
30150;DHT22;16962;48.646;9.026;2023-05-15T03:34:49;8.90;99.90
30150;DHT22;16962;48.646;9.026;2023-05-15T03:37:38;8.90;99.90
30150;DHT22;16962;48.646;9.026;2023-05-15T03:40:25;9.00;99.90
30150;DHT22;16962;48.646;9.026;2023-05-15T03:43:15;9.00;99.90
30150;DHT22;16962;48.646;9.026;2023-05-15T03:46:02;8.90;99.90
30150;DHT22;16962;48.646;9.026;2023-05-15T03:48:49;8.90;99.90
30150;DHT22;16962;48.646;9.026;2023-05-15T03:51:38;8.90;99.90
30150;DHT22;16962;48.646;9.026;2023-05-15T03:54:25;8.90;99.90
30150;DHT22;16962;48.646;9.026;2023-05-15T03:57:13;8.90;99.90
30150;DHT22;16962;48.646;9.026;2023-05-15T04:00:03;8.90;99.90
30150;DHT22;16962;48.646;9.026;2023-05-15T04:02:57;8.90;99.90
30150;DHT22;16962;48.646;9.026;2023-05-15T04:05:48;8.90;99.90
30150;DHT22;16962;48.646;9.026;2023-05-15T04:08:41;8.90;99.90
30150;DHT22;16962;48.646;9.026;2023-05-15T04:11:28;9.00;99.90
30150;DHT22;16962;48.646;9.026;2023-05-15T04:14:20;8.90;99.90
30150;DHT22;16962;48.646;9.026;2023-05-15T04:17:07;9.00;99.90
30150;DHT22;16962;48.646;9.026;2023-05-15T04:19:57;9.00;99.90
30150;DHT22;16962;48.646;9.026;2023-05-15T04:22:46;9.10;99.90
30150;DHT22;16962;48.646;9.026;2023-05-15T04:25:33;9.10;99.90
30150;DHT22;16962;48.646;9.026;2023-05-15T04:28:20;9.20;99.90
30150;DHT22;16962;48.646;9.026;2023-05-15T04:31:08;9.20;99.90
30150;DHT22;16962;48.646;9.026;2023-05-15T04:33:55;9.20;99.90
30150;DHT22;16962;48.646;9.026;2023-05-15T04:36:45;9.20;99.90
30150;DHT22;16962;48.646;9.026;2023-05-15T04:39:33;9.30;99.90
30150;DHT22;16962;48.646;9.026;2023-05-15T04:42:24;9.30;99.90
30150;DHT22;16962;48.646;9.026;2023-05-15T04:45:12;9.40;99.90
30150;DHT22;16962;48.646;9.026;2023-05-15T04:48:00;9.50;99.90
30150;DHT22;16962;48.646;9.026;2023-05-15T04:50:49;9.50;99.90
30150;DHT22;16962;48.646;9.026;2023-05-15T04:53:37;9.50;99.90
30150;DHT22;16962;48.646;9.026;2023-05-15T04:56:24;9.40;99.90
30150;DHT22;16962;48.646;9.026;2023-05-15T04:59:14;9.50;99.90
30150;DHT22;16962;48.646;9.026;2023-05-15T05:02:02;9.50;99.90
30150;DHT22;16962;48.646;9.026;2023-05-15T05:04:50;9.50;99.90
30150;DHT22;16962;48.646;9.026;2023-05-15T05:07:37;9.50;99.90
30150;DHT22;16962;48.646;9.026;2023-05-15T05:10:24;9.60;99.90
30150;DHT22;16962;48.646;9.026;2023-05-15T05:13:15;9.60;99.90
30150;DHT22;16962;48.646;9.026;2023-05-15T05:16:04;9.60;99.90
30150;DHT22;16962;48.646;9.026;2023-05-15T05:18:51;9.70;99.90
30150;DHT22;16962;48.646;9.026;2023-05-15T05:21:43;9.70;99.90
30150;DHT22;16962;48.646;9.026;2023-05-15T05:24:31;9.80;99.90
30150;DHT22;16962;48.646;9.026;2023-05-15T05:27:18;9.90;99.90
30150;DHT22;16962;48.646;9.026;2023-05-15T05:30:06;10.00;99.90
30150;DHT22;16962;48.646;9.026;2023-05-15T05:32:54;10.10;99.90
30150;DHT22;16962;48.646;9.026;2023-05-15T05:35:44;10.30;99.90
30150;DHT22;16962;48.646;9.026;2023-05-15T05:38:31;10.40;99.90
30150;DHT22;16962;48.646;9.026;2023-05-15T05:41:24;10.50;99.90
30150;DHT22;16962;48.646;9.026;2023-05-15T07:02:37;13.50;1.00
30150;DHT22;16962;48.646;9.026;2023-05-15T07:06:03;13.50;1.00
30150;DHT22;16962;48.646;9.026;2023-05-15T08:16:25;22.10;99.90
30150;DHT22;16962;48.646;9.026;2023-05-15T14:35:34;22.90;99.90
30150;DHT22;16962;48.646;9.026;2023-05-15T14:38:32;23.80;99.90
30150;DHT22;16962;48.646;9.026;2023-05-15T14:41:20;24.10;91.00
30150;DHT22;16962;48.646;9.026;2023-05-15T14:44:21;24.90;67.00
30150;DHT22;16962;48.646;9.026;2023-05-15T14:47:14;25.50;59.00
30150;DHT22;16962;48.646;9.026;2023-05-15T14:50:05;25.90;40.70
30150;DHT22;16962;48.646;9.026;2023-05-15T14:52:52;25.70;43.20
30150;DHT22;16962;48.646;9.026;2023-05-15T14:55:46;24.50;33.60
30150;DHT22;16962;48.646;9.026;2023-05-15T14:58:33;24.10;33.50
30150;DHT22;16962;48.646;9.026;2023-05-15T15:01:58;25.10;29.30
30150;DHT22;16962;48.646;9.026;2023-05-15T15:04:46;24.60;22.30
30150;DHT22;16962;48.646;9.026;2023-05-15T15:07:58;22.70;27.10
30150;DHT22;16962;48.646;9.026;2023-05-15T15:10:48;23.00;31.10
30150;DHT22;16962;48.646;9.026;2023-05-15T15:13:36;24.30;20.70
30150;DHT22;16962;48.646;9.026;2023-05-15T15:16:25;23.90;21.90
30150;DHT22;16962;48.646;9.026;2023-05-15T15:19:13;23.10;16.60
30150;DHT22;16962;48.646;9.026;2023-05-15T15:22:04;22.30;12.80
30150;DHT22;16962;48.646;9.026;2023-05-15T15:24:51;22.60;9.80
30150;DHT22;16962;48.646;9.026;2023-05-15T15:27:39;23.50;2.60
30150;DHT22;16962;48.646;9.026;2023-05-15T15:30:27;22.90;2.10
30150;DHT22;16962;48.646;9.026;2023-05-15T15:33:14;22.00;1.00
30150;DHT22;16962;48.646;9.026;2023-05-15T15:36:04;21.40;1.00
30150;DHT22;16962;48.646;9.026;2023-05-15T15:38:51;21.40;1.00
30150;DHT22;16962;48.646;9.026;2023-05-15T15:41:39;20.60;10.90
30150;DHT22;16962;48.646;9.026;2023-05-15T15:44:32;20.80;17.70
30150;DHT22;16962;48.646;9.026;2023-05-15T15:47:22;20.70;23.50
30150;DHT22;16962;48.646;9.026;2023-05-15T15:50:10;19.90;25.80
30150;DHT22;16962;48.646;9.026;2023-05-15T15:52:57;18.70;32.90
30150;DHT22;16962;48.646;9.026;2023-05-15T15:55:44;18.10;57.10
30150;DHT22;16962;48.646;9.026;2023-05-15T15:58:35;17.60;65.40
30150;DHT22;16962;48.646;9.026;2023-05-15T16:01:26;17.40;67.50
30150;DHT22;16962;48.646;9.026;2023-05-15T16:04:16;17.10;77.30
30150;DHT22;16962;48.646;9.026;2023-05-15T16:07:04;17.00;90.00
30150;DHT22;16962;48.646;9.026;2023-05-15T16:09:52;16.90;91.40
30150;DHT22;16962;48.646;9.026;2023-05-15T16:12:57;16.70;91.20
30150;DHT22;16962;48.646;9.026;2023-05-15T16:15:46;16.70;93.10
30150;DHT22;16962;48.646;9.026;2023-05-15T16:18:41;16.60;96.00
30150;DHT22;16962;48.646;9.026;2023-05-15T16:21:29;16.50;90.50
30150;DHT22;16962;48.646;9.026;2023-05-15T16:24:17;16.30;96.10
30150;DHT22;16962;48.646;9.026;2023-05-15T16:27:05;16.30;99.90
30150;DHT22;16962;48.646;9.026;2023-05-15T16:29:55;16.40;99.90
30150;DHT22;16962;48.646;9.026;2023-05-15T16:32:43;16.60;99.90
30150;DHT22;16962;48.646;9.026;2023-05-15T16:35:33;17.00;99.90
30150;DHT22;16962;48.646;9.026;2023-05-15T16:38:25;17.00;99.90
30150;DHT22;16962;48.646;9.026;2023-05-15T16:41:13;17.10;99.90
30150;DHT22;16962;48.646;9.026;2023-05-15T16:44:00;17.10;99.90
30150;DHT22;16962;48.646;9.026;2023-05-15T16:46:48;16.90;99.90
30150;DHT22;16962;48.646;9.026;2023-05-15T16:49:35;16.50;99.90
30150;DHT22;16962;48.646;9.026;2023-05-15T16:52:23;16.30;99.90
30150;DHT22;16962;48.646;9.026;2023-05-15T16:55:12;16.20;99.90
30150;DHT22;16962;48.646;9.026;2023-05-15T16:58:06;16.30;99.90
30150;DHT22;16962;48.646;9.026;2023-05-15T17:00:53;16.30;99.90
30150;DHT22;16962;48.646;9.026;2023-05-15T17:03:41;16.30;99.90
30150;DHT22;16962;48.646;9.026;2023-05-15T17:06:29;16.30;99.90
30150;DHT22;16962;48.646;9.026;2023-05-15T17:09:16;16.20;99.90
30150;DHT22;16962;48.646;9.026;2023-05-15T17:12:04;16.30;99.90
30150;DHT22;16962;48.646;9.026;2023-05-15T17:14:52;16.30;99.90
30150;DHT22;16962;48.646;9.026;2023-05-15T17:17:48;16.40;99.90
30150;DHT22;16962;48.646;9.026;2023-05-15T17:20:36;16.30;99.90
30150;DHT22;16962;48.646;9.026;2023-05-15T17:23:26;16.30;99.90
30150;DHT22;16962;48.646;9.026;2023-05-15T17:26:13;16.30;99.90
30150;DHT22;16962;48.646;9.026;2023-05-15T17:29:00;16.20;99.90
30150;DHT22;16962;48.646;9.026;2023-05-15T17:31:48;16.30;99.90
30150;DHT22;16962;48.646;9.026;2023-05-15T17:34:35;16.30;99.90
30150;DHT22;16962;48.646;9.026;2023-05-15T17:37:26;16.30;99.90
30150;DHT22;16962;48.646;9.026;2023-05-15T17:40:13;16.00;97.70
30150;DHT22;16962;48.646;9.026;2023-05-15T17:43:01;15.90;99.20
30150;DHT22;16962;48.646;9.026;2023-05-15T17:46:00;15.70;99.90
30150;DHT22;16962;48.646;9.026;2023-05-15T17:48:48;15.60;99.90
30150;DHT22;16962;48.646;9.026;2023-05-15T17:51:35;15.60;99.90
30150;DHT22;16962;48.646;9.026;2023-05-15T17:54:25;15.50;99.90
30150;DHT22;16962;48.646;9.026;2023-05-15T17:57:22;15.40;99.90
30150;DHT22;16962;48.646;9.026;2023-05-15T18:00:12;15.40;99.90
30150;DHT22;16962;48.646;9.026;2023-05-15T18:02:59;15.30;99.90
30150;DHT22;16962;48.646;9.026;2023-05-15T18:05:51;15.40;99.90
30150;DHT22;16962;48.646;9.026;2023-05-15T18:08:39;15.30;99.90
30150;DHT22;16962;48.646;9.026;2023-05-15T18:11:27;15.20;99.90
30150;DHT22;16962;48.646;9.026;2023-05-15T18:14:15;15.10;99.90
30150;DHT22;16962;48.646;9.026;2023-05-15T18:17:14;15.00;99.90
30150;DHT22;16962;48.646;9.026;2023-05-15T18:20:03;14.90;99.90
30150;DHT22;16962;48.646;9.026;2023-05-15T18:22:54;14.70;99.90
30150;DHT22;16962;48.646;9.026;2023-05-15T18:25:42;14.70;99.90
30150;DHT22;16962;48.646;9.026;2023-05-15T18:28:29;14.60;99.90
30150;DHT22;16962;48.646;9.026;2023-05-15T18:31:20;14.40;99.90
30150;DHT22;16962;48.646;9.026;2023-05-15T18:34:16;14.30;99.90
30150;DHT22;16962;48.646;9.026;2023-05-15T18:37:06;14.20;99.90
30150;DHT22;16962;48.646;9.026;2023-05-15T18:39:54;14.00;99.90
30150;DHT22;16962;48.646;9.026;2023-05-15T18:42:47;14.00;99.90
30150;DHT22;16962;48.646;9.026;2023-05-15T18:45:35;13.90;99.90
30150;DHT22;16962;48.646;9.026;2023-05-15T18:48:23;13.80;99.90
30150;DHT22;16962;48.646;9.026;2023-05-15T18:51:13;13.70;99.90
30150;DHT22;16962;48.646;9.026;2023-05-15T18:54:01;13.70;99.90
30150;DHT22;16962;48.646;9.026;2023-05-15T18:56:49;13.60;99.90
30150;DHT22;16962;48.646;9.026;2023-05-15T18:59:36;13.50;99.90
30150;DHT22;16962;48.646;9.026;2023-05-15T19:02:24;13.50;99.90
30150;DHT22;16962;48.646;9.026;2023-05-15T19:05:12;13.40;99.90
30150;DHT22;16962;48.646;9.026;2023-05-15T19:07:59;13.40;1.00
30150;DHT22;16962;48.646;9.026;2023-05-15T19:10:47;13.30;1.00
30150;DHT22;16962;48.646;9.026;2023-05-15T19:13:37;13.30;1.00
30150;DHT22;16962;48.646;9.026;2023-05-15T19:16:24;13.20;1.00
30150;DHT22;16962;48.646;9.026;2023-05-15T19:19:14;13.20;1.00
30150;DHT22;16962;48.646;9.026;2023-05-15T19:22:02;13.10;1.00
30150;DHT22;16962;48.646;9.026;2023-05-15T19:24:52;13.10;1.00
30150;DHT22;16962;48.646;9.026;2023-05-15T19:27:39;13.00;1.00
30150;DHT22;16962;48.646;9.026;2023-05-15T19:30:27;12.90;1.00
30150;DHT22;16962;48.646;9.026;2023-05-15T19:33:15;12.90;1.00
30150;DHT22;16962;48.646;9.026;2023-05-15T19:36:03;12.80;1.00
30150;DHT22;16962;48.646;9.026;2023-05-15T19:38:51;12.80;1.00
30150;DHT22;16962;48.646;9.026;2023-05-15T19:41:39;12.70;1.00
30150;DHT22;16962;48.646;9.026;2023-05-15T19:44:27;12.80;1.00
30150;DHT22;16962;48.646;9.026;2023-05-15T19:47:15;12.70;22.50
30150;DHT22;16962;48.646;9.026;2023-05-15T19:50:05;12.70;48.50
30150;DHT22;16962;48.646;9.026;2023-05-15T19:53:01;12.60;66.60
30150;DHT22;16962;48.646;9.026;2023-05-15T19:55:49;12.60;99.90
30150;DHT22;16962;48.646;9.026;2023-05-15T19:58:42;12.60;99.90
30150;DHT22;16962;48.646;9.026;2023-05-15T20:01:29;12.50;99.90
30150;DHT22;16962;48.646;9.026;2023-05-15T20:04:17;12.40;99.90
30150;DHT22;16962;48.646;9.026;2023-05-15T20:07:05;12.40;99.90
30150;DHT22;16962;48.646;9.026;2023-05-15T20:09:54;12.30;99.90
30150;DHT22;16962;48.646;9.026;2023-05-15T20:12:41;12.30;99.90
30150;DHT22;16962;48.646;9.026;2023-05-15T20:15:31;12.30;99.90
30150;DHT22;16962;48.646;9.026;2023-05-15T20:18:19;12.20;99.90
30150;DHT22;16962;48.646;9.026;2023-05-15T20:21:10;12.10;99.90
30150;DHT22;16962;48.646;9.026;2023-05-15T20:23:58;12.00;99.90
30150;DHT22;16962;48.646;9.026;2023-05-15T20:26:46;12.00;99.90
30150;DHT22;16962;48.646;9.026;2023-05-15T20:29:37;12.00;99.90
30150;DHT22;16962;48.646;9.026;2023-05-15T20:32:25;12.00;99.90
30150;DHT22;16962;48.646;9.026;2023-05-15T20:35:13;12.00;99.90
30150;DHT22;16962;48.646;9.026;2023-05-15T20:38:01;12.00;99.90
30150;DHT22;16962;48.646;9.026;2023-05-15T20:40:50;12.00;99.90
30150;DHT22;16962;48.646;9.026;2023-05-15T20:43:39;12.00;99.90
30150;DHT22;16962;48.646;9.026;2023-05-15T20:46:26;12.00;99.90
30150;DHT22;16962;48.646;9.026;2023-05-15T20:49:16;12.00;99.90
30150;DHT22;16962;48.646;9.026;2023-05-15T20:52:04;12.00;99.90
30150;DHT22;16962;48.646;9.026;2023-05-15T20:54:54;12.00;99.90
30150;DHT22;16962;48.646;9.026;2023-05-15T20:57:43;11.90;99.90
30150;DHT22;16962;48.646;9.026;2023-05-15T21:00:33;11.90;99.90
30150;DHT22;16962;48.646;9.026;2023-05-15T21:03:20;12.00;99.90
30150;DHT22;16962;48.646;9.026;2023-05-15T21:06:11;12.00;99.90
30150;DHT22;16962;48.646;9.026;2023-05-15T21:08:59;12.00;99.90
30150;DHT22;16962;48.646;9.026;2023-05-15T21:11:47;12.00;99.90
30150;DHT22;16962;48.646;9.026;2023-05-15T21:14:34;11.90;99.90
30150;DHT22;16962;48.646;9.026;2023-05-15T21:17:22;11.90;99.90
30150;DHT22;16962;48.646;9.026;2023-05-15T21:20:10;11.80;99.90
30150;DHT22;16962;48.646;9.026;2023-05-15T21:22:58;11.80;99.90
30150;DHT22;16962;48.646;9.026;2023-05-15T21:25:45;11.80;1.00
30150;DHT22;16962;48.646;9.026;2023-05-15T21:28:33;11.70;1.00
30150;DHT22;16962;48.646;9.026;2023-05-15T21:31:21;11.70;99.90
30150;DHT22;16962;48.646;9.026;2023-05-15T21:34:10;11.60;99.90
30150;DHT22;16962;48.646;9.026;2023-05-15T21:37:00;11.50;99.90
30150;DHT22;16962;48.646;9.026;2023-05-15T21:39:48;11.40;1.00
30150;DHT22;16962;48.646;9.026;2023-05-15T21:42:37;11.30;52.00
30150;DHT22;16962;48.646;9.026;2023-05-15T21:45:27;11.30;99.90
30150;DHT22;16962;48.646;9.026;2023-05-15T21:48:15;11.20;99.90
30150;DHT22;16962;48.646;9.026;2023-05-15T21:51:02;11.20;99.90
30150;DHT22;16962;48.646;9.026;2023-05-15T21:54:17;11.20;99.90
30150;DHT22;16962;48.646;9.026;2023-05-15T21:57:05;11.20;1.00
30150;DHT22;16962;48.646;9.026;2023-05-15T21:59:54;11.20;1.00
30150;DHT22;16962;48.646;9.026;2023-05-15T22:02:42;11.20;99.90
30150;DHT22;16962;48.646;9.026;2023-05-15T22:05:29;11.20;99.90
30150;DHT22;16962;48.646;9.026;2023-05-15T22:08:19;11.20;99.90
30150;DHT22;16962;48.646;9.026;2023-05-15T22:11:10;11.30;45.60
30150;DHT22;16962;48.646;9.026;2023-05-15T22:14:00;11.40;1.00
30150;DHT22;16962;48.646;9.026;2023-05-15T22:16:47;11.40;1.00
30150;DHT22;16962;48.646;9.026;2023-05-15T22:19:34;11.30;1.00
30150;DHT22;16962;48.646;9.026;2023-05-15T22:22:24;11.30;99.90
30150;DHT22;16962;48.646;9.026;2023-05-15T22:25:12;11.30;99.90
30150;DHT22;16962;48.646;9.026;2023-05-15T22:27:59;11.30;99.90
30150;DHT22;16962;48.646;9.026;2023-05-15T22:30:52;11.40;99.90
30150;DHT22;16962;48.646;9.026;2023-05-15T22:33:42;11.40;99.90
30150;DHT22;16962;48.646;9.026;2023-05-15T22:36:29;11.40;99.90
30150;DHT22;16962;48.646;9.026;2023-05-15T22:39:16;11.40;99.90
30150;DHT22;16962;48.646;9.026;2023-05-15T22:42:04;11.40;76.10
30150;DHT22;16962;48.646;9.026;2023-05-15T22:44:53;11.40;1.00
30150;DHT22;16962;48.646;9.026;2023-05-15T22:47:43;11.40;1.00
30150;DHT22;16962;48.646;9.026;2023-05-15T22:50:30;11.40;1.00
30150;DHT22;16962;48.646;9.026;2023-05-15T22:53:17;11.40;1.00
30150;DHT22;16962;48.646;9.026;2023-05-15T22:56:05;11.40;1.00
30150;DHT22;16962;48.646;9.026;2023-05-15T22:58:52;11.30;1.00
30150;DHT22;16962;48.646;9.026;2023-05-15T23:01:40;11.30;1.00
30150;DHT22;16962;48.646;9.026;2023-05-15T23:04:28;11.30;1.00
30150;DHT22;16962;48.646;9.026;2023-05-15T23:07:15;11.30;1.00
30150;DHT22;16962;48.646;9.026;2023-05-15T23:10:03;11.30;15.10
30150;DHT22;16962;48.646;9.026;2023-05-15T23:12:50;11.30;80.80
30150;DHT22;16962;48.646;9.026;2023-05-15T23:15:38;11.20;99.90
30150;DHT22;16962;48.646;9.026;2023-05-15T23:18:25;11.20;99.90
30150;DHT22;16962;48.646;9.026;2023-05-15T23:21:13;11.20;99.90
30150;DHT22;16962;48.646;9.026;2023-05-15T23:24:00;11.20;99.90
30150;DHT22;16962;48.646;9.026;2023-05-15T23:26:48;11.20;99.90
30150;DHT22;16962;48.646;9.026;2023-05-15T23:29:35;11.10;99.90
30150;DHT22;16962;48.646;9.026;2023-05-15T23:32:25;11.20;99.90
30150;DHT22;16962;48.646;9.026;2023-05-15T23:35:13;11.10;1.00
30150;DHT22;16962;48.646;9.026;2023-05-15T23:38:07;11.10;1.00
30150;DHT22;16962;48.646;9.026;2023-05-15T23:40:54;11.10;1.00
30150;DHT22;16962;48.646;9.026;2023-05-15T23:43:44;11.20;1.00
30150;DHT22;16962;48.646;9.026;2023-05-15T23:46:31;11.20;1.00
30150;DHT22;16962;48.646;9.026;2023-05-15T23:49:21;11.30;1.00
30150;DHT22;16962;48.646;9.026;2023-05-15T23:52:08;11.30;99.90
30150;DHT22;16962;48.646;9.026;2023-05-15T23:54:57;11.40;99.90
30150;DHT22;16962;48.646;9.026;2023-05-15T23:57:45;11.30;99.90
